Time;durP1;ratioP1;P1;durP2;ratioP2;P2;SDS_P1;SDS_P2;PMS_P1;PMS_P2;Temp;Humidity;BMP_temperature;BMP_pressure;BME280_temperature;BME280_humidity;BME280_pressure;Samples;Min_cycle;Max_cycle;Signal;HPM_P1;HPM_P2
2022/06/18 00:02:06;;;;;;;7.73;1.50;;;19.20;97.10;;;20.14;93.03;98635.50;4996563;28;20534;-77
2022/06/18 00:04:36;;;;;;;2.03;1.67;;;19.10;97.10;;;20.03;93.86;98629.16;4998342;28;20977;-77
2022/06/18 00:07:13;;;;;;;3.60;1.83;;;19.20;96.90;;;19.94;94.67;98625.25;4996694;28;20522;-77
2022/06/18 00:09:54;;;;;;;3.03;1.60;;;19.10;97.00;;;19.90;94.69;98624.09;4996469;28;20478;-77
2022/06/18 00:15:20;;;;;;;4.20;2.00;;;19.00;97.30;;;19.85;95.15;98625.84;4997666;28;20495;-77
2022/06/18 00:17:52;;;;;;;3.33;1.70;;;18.90;97.40;;;19.84;95.24;98629.53;4997444;28;20463;-77
2022/06/18 00:20:25;;;;;;;3.17;1.80;;;18.90;97.50;;;19.78;95.73;98630.47;4995303;28;20490;-77
2022/06/18 00:22:59;;;;;;;5.10;1.97;;;18.80;97.50;;;19.77;95.77;98627.00;4997427;28;20467;-77
2022/06/18 00:25:38;;;;;;;4.00;1.73;;;18.90;97.30;;;19.78;95.74;98628.63;4998067;28;20529;-77
2022/06/18 00:28:15;;;;;;;1.93;1.73;;;18.80;97.60;;;19.70;95.92;98630.81;4999748;28;20475;-77
2022/06/18 00:30:44;;;;;;;9.83;1.63;;;18.80;97.60;;;19.69;95.84;98634.50;4996163;28;20458;-77
2022/06/18 00:33:15;;;;;;;1.93;1.47;;;18.70;97.60;;;19.62;95.92;98637.25;4994298;28;20479;-77
2022/06/18 00:35:46;;;;;;;2.13;1.40;;;18.70;97.50;;;19.62;95.87;98631.16;4999956;28;20538;-77
2022/06/18 00:38:26;;;;;;;3.13;2.23;;;18.60;97.40;;;19.59;95.85;98633.22;4998553;28;20459;-77
2022/06/18 00:40:57;;;;;;;2.77;1.70;;;18.60;97.50;;;19.52;96.69;98634.38;4995427;28;20483;-77
2022/06/18 00:43:36;;;;;;;2.53;1.83;;;18.60;97.40;;;19.48;97.27;98633.22;5001298;28;20978;-77
2022/06/18 00:46:15;;;;;;;4.60;1.90;;;18.60;97.40;;;19.42;97.04;98627.00;4996259;28;20553;-77
2022/06/18 00:48:57;;;;;;;2.63;1.73;;;18.60;97.60;;;19.44;96.95;98632.88;4998940;28;20472;-77
2022/06/18 00:51:32;;;;;;;1.90;1.50;;;18.50;97.60;;;19.41;97.32;98630.66;4997794;28;20467;-77
2022/06/18 00:54:12;;;;;;;5.93;2.20;;;18.40;97.80;;;19.34;97.69;98624.63;4998437;28;20466;-77
2022/06/18 00:57:03;;;;;;;2.63;1.70;;;18.50;97.70;;;19.26;98.52;98622.34;4997138;28;20472;-77
2022/06/18 00:59:42;;;;;;;3.27;1.97;;;18.40;97.70;;;19.19;98.83;98621.63;4998849;28;20485;-77
2022/06/18 01:02:19;;;;;;;2.47;1.80;;;18.40;97.80;;;19.19;98.72;98621.63;4998759;28;20517;-77
2022/06/18 01:04:49;;;;;;;7.97;2.13;;;18.20;98.00;;;19.14;98.91;98618.84;4997256;28;20467;-77
2022/06/18 01:07:34;;;;;;;3.00;1.63;;;18.20;97.80;;;19.11;99.22;98616.66;5002443;28;20499;-77
2022/06/18 01:10:15;;;;;;;2.70;1.80;;;18.20;97.80;;;19.06;99.94;98619.16;5002239;28;20462;-77
2022/06/18 01:12:45;;;;;;;1.83;1.50;;;18.20;97.80;;;19.08;99.53;98615.25;5000794;28;20774;-77
2022/06/18 01:15:21;;;;;;;2.17;1.83;;;18.20;97.70;;;18.99;100.00;98613.97;5001934;28;20526;-77
2022/06/18 01:17:54;;;;;;;2.23;1.73;;;18.20;98.10;;;18.96;100.00;98614.41;5002927;28;20442;-77
2022/06/18 01:20:26;;;;;;;3.50;1.90;;;18.10;98.20;;;18.95;100.00;98612.00;5001787;28;20874;-77
2022/06/18 01:23:08;;;;;;;3.30;1.87;;;18.10;98.20;;;18.87;100.00;98617.63;5001967;28;20483;-77
2022/06/18 01:25:40;;;;;;;3.03;1.70;;;18.00;98.20;;;18.86;100.00;98608.03;5000923;28;20474;-77
2022/06/18 01:28:13;;;;;;;2.50;1.73;;;18.00;98.40;;;18.81;100.00;98602.63;4999756;28;20475;-77
2022/06/18 01:30:42;;;;;;;2.37;1.57;;;17.90;98.20;;;18.79;100.00;98594.88;5000547;28;20443;-77
2022/06/18 01:33:13;;;;;;;2.67;2.00;;;17.90;98.50;;;18.79;100.00;98599.38;5002016;28;21048;-77
2022/06/18 01:35:47;;;;;;;1.93;1.70;;;17.80;98.60;;;18.80;100.00;98595.69;5000590;28;20653;-77
2022/06/18 01:38:18;;;;;;;2.03;1.50;;;17.80;98.70;;;18.78;100.00;98592.47;4998327;28;20490;-77
2022/06/18 01:40:56;;;;;;;3.70;1.70;;;17.80;98.40;;;18.75;100.00;98592.91;4998386;28;20499;-77
2022/06/18 01:43:27;;;;;;;3.00;2.00;;;17.80;98.40;;;18.70;100.00;98593.59;4999690;28;20463;-77
2022/06/18 01:46:02;;;;;;;2.10;1.70;;;17.80;98.30;;;18.66;100.00;98600.38;4999468;28;20468;-77
2022/06/18 01:48:39;;;;;;;2.70;1.80;;;17.60;98.70;;;18.64;100.00;98601.66;4997501;28;20983;-77
2022/06/18 01:51:15;;;;;;;3.70;1.97;;;17.60;98.80;;;18.57;100.00;98591.13;5002367;28;20942;-77
2022/06/18 01:53:50;;;;;;;2.00;1.60;;;17.60;98.70;;;18.53;100.00;98590.75;4999960;28;20463;-77
2022/06/18 01:56:28;;;;;;;3.13;1.63;;;17.60;98.60;;;18.51;100.00;98597.31;4997213;28;20466;-77
2022/06/18 01:59:03;;;;;;;2.60;1.83;;;17.60;99.00;;;18.48;100.00;98593.25;4998976;28;20452;-77
2022/06/18 02:01:40;;;;;;;5.07;1.73;;;17.50;98.90;;;18.45;100.00;98593.69;5000387;28;20533;-77
2022/06/18 02:04:10;;;;;;;3.03;1.70;;;17.50;98.80;;;18.39;100.00;98593.78;5000803;28;20580;-77
2022/06/18 02:06:48;;;;;;;2.50;1.70;;;17.50;99.00;;;18.36;100.00;98589.72;4999370;28;20555;-77
2022/06/18 02:09:40;;;;;;;2.67;1.60;;;17.50;99.00;;;18.40;100.00;98590.91;4998850;28;20557;-77
2022/06/18 02:12:17;;;;;;;2.87;1.70;;;17.40;99.00;;;18.39;100.00;98588.50;4993744;28;20553;-77
2022/06/18 02:14:52;;;;;;;2.00;1.63;;;17.40;98.90;;;18.34;100.00;98585.69;4999229;28;20553;-77
2022/06/18 02:17:25;;;;;;;4.60;1.70;;;17.40;99.00;;;18.28;100.00;98590.06;4997037;28;20451;-77
2022/06/18 02:20:07;;;;;;;2.27;1.67;;;17.40;98.90;;;18.24;100.00;98586.22;4998052;28;20459;-77
2022/06/18 02:22:44;;;;;;;1.87;1.67;;;17.30;99.00;;;18.22;100.00;98583.00;4995591;28;20930;-77
2022/06/18 02:25:16;;;;;;;3.03;2.03;;;17.30;99.10;;;18.20;100.00;98584.25;4998621;28;20463;-77
2022/06/18 02:27:49;;;;;;;3.93;1.80;;;17.30;99.00;;;18.16;100.00;98575.13;4997537;28;20532;-77
2022/06/18 02:30:23;;;;;;;2.43;1.30;;;17.30;98.90;;;18.13;100.00;98572.91;4996636;28;20922;-77
2022/06/18 02:33:02;;;;;;;4.73;1.70;;;17.30;99.10;;;18.09;100.00;98572.56;4997068;28;20496;-77
2022/06/18 02:35:33;;;;;;;3.50;1.83;;;17.30;99.20;;;18.03;100.00;98574.25;4998286;28;20468;-77
2022/06/18 02:38:12;;;;;;;3.30;2.00;;;17.20;99.10;;;18.02;100.00;98577.13;4997396;28;20971;-77
2022/06/18 02:40:42;;;;;;;2.50;1.57;;;17.10;99.40;;;18.00;100.00;98569.41;4996767;28;20898;-77
2022/06/18 02:43:16;;;;;;;3.13;2.07;;;17.00;99.30;;;18.01;100.00;98575.53;4996503;28;20927;-77
2022/06/18 02:45:50;;;;;;;3.50;1.70;;;17.10;99.20;;;18.04;100.00;98575.06;4996009;28;20479;-77
2022/06/18 02:48:24;;;;;;;3.27;1.70;;;17.00;99.40;;;17.99;100.00;98572.25;4999387;28;21028;-77
2022/06/18 02:50:55;;;;;;;2.10;1.53;;;17.00;99.50;;;17.93;100.00;98575.81;4999892;28;20500;-77
2022/06/18 02:53:25;;;;;;;1.93;1.60;;;17.00;99.40;;;17.91;100.00;98580.53;5002885;28;20452;-78
2022/06/18 02:56:00;;;;;;;2.90;1.70;;;17.00;99.40;;;17.86;100.00;98578.53;4998672;28;20945;-77
2022/06/18 02:58:34;;;;;;;4.83;2.17;;;17.00;99.30;;;17.85;100.00;98573.44;5001012;28;20463;-77
2022/06/18 03:01:08;;;;;;;6.00;1.97;;;16.90;99.60;;;17.79;100.00;98571.69;4999933;28;20833;-77
2022/06/18 03:03:41;;;;;;;2.30;1.50;;;17.00;99.30;;;17.79;100.00;98584.91;4995420;28;20830;-77
2022/06/18 03:06:13;;;;;;;18.03;8.60;;;16.90;99.50;;;17.77;100.00;98579.03;5003805;28;20463;-88
2022/06/18 03:08:46;;;;;;;2.70;2.20;;;16.90;99.40;;;17.84;100.00;98574.50;4995363;28;20543;-77
2022/06/18 03:14:08;;;;;;;4.43;1.63;;;16.90;99.70;;;17.72;100.00;98584.16;4997568;28;20467;-77
2022/06/18 03:16:38;;;;;;;3.50;2.10;;;16.80;99.70;;;17.67;100.00;98584.81;4998003;28;20488;-77
2022/06/18 03:19:07;;;;;;;2.23;1.83;;;16.80;99.70;;;17.63;100.00;98573.09;4998316;28;20876;-82
2022/06/18 03:21:46;;;;;;;2.70;1.80;;;16.80;99.70;;;17.59;100.00;98578.00;4996616;28;21021;-78
2022/06/18 03:24:17;;;;;;;3.10;1.77;;;16.70;99.80;;;17.60;100.00;98581.44;4995775;28;20575;-77
2022/06/18 03:26:48;;;;;;;2.77;1.70;;;16.70;99.90;;;17.59;100.00;98583.28;5000541;28;20463;-77
2022/06/18 03:29:20;;;;;;;2.70;2.00;;;16.60;99.90;;;17.56;100.00;98577.63;4998466;28;21024;-78
2022/06/18 03:31:50;;;;;;;9.60;1.80;;;16.60;99.90;;;17.55;100.00;98576.78;4996206;28;20555;-90
2022/06/18 03:34:20;;;;;;;4.83;2.00;;;16.60;99.90;;;17.52;100.00;98579.88;4996846;28;20490;-78
2022/06/18 03:36:49;;;;;;;1.93;1.60;;;16.60;99.90;;;17.53;100.00;98583.28;4995709;28;20463;-77
2022/06/18 03:39:19;;;;;;;4.60;2.10;;;16.50;99.90;;;17.53;100.00;98584.09;4998705;28;20881;-77
2022/06/18 03:41:49;;;;;;;2.60;1.70;;;16.60;99.90;;;17.52;100.00;98584.34;4997963;28;20565;-77
2022/06/18 03:44:23;;;;;;;2.77;1.60;;;16.50;99.90;;;17.53;100.00;98578.81;4999581;28;20527;-77
2022/06/18 03:46:54;;;;;;;2.90;1.70;;;16.60;99.90;;;17.48;100.00;98585.81;4998454;28;20495;-78
2022/06/18 03:49:28;;;;;;;2.27;1.40;;;16.60;99.90;;;17.45;100.00;98589.69;4999890;28;20471;-75
2022/06/18 03:52:01;;;;;;;2.00;1.63;;;16.60;99.90;;;17.42;100.00;98586.69;4998381;28;20447;-78
2022/06/18 03:54:31;;;;;;;2.93;1.83;;;16.50;99.90;;;17.41;100.00;98583.22;4999625;28;20484;-78
2022/06/18 03:57:03;;;;;;;2.07;1.87;;;16.50;99.90;;;17.42;100.00;98581.38;5002194;28;20471;-86
2022/06/18 03:59:35;;;;;;;3.20;2.70;;;16.40;99.90;;;17.42;100.00;98584.81;5000786;28;20467;-78
2022/06/18 04:02:07;;;;;;;2.60;2.00;;;16.50;99.90;;;17.42;100.00;98576.88;4999307;28;20538;-77
2022/06/18 04:04:36;;;;;;;3.83;1.93;;;16.50;99.90;;;17.42;100.00;98579.53;5001332;28;20485;-78
2022/06/18 04:07:07;;;;;;;2.20;1.70;;;16.50;99.90;;;17.41;100.00;98577.94;4999313;28;20467;-78
2022/06/18 04:09:37;;;;;;;2.30;1.30;;;16.50;99.90;;;17.41;100.00;98574.47;4997611;28;20981;-77
2022/06/18 04:12:09;;;;;;;3.00;1.90;;;16.50;99.90;;;17.44;100.00;98574.84;5000224;28;20521;-77
2022/06/18 04:14:41;;;;;;;2.50;1.53;;;16.50;99.90;;;17.44;100.00;98569.56;4998028;28;20510;-77
2022/06/18 04:17:14;;;;;;;13.63;2.17;;;16.50;99.90;;;17.45;100.00;98573.84;4999771;28;20526;-77
2022/06/18 04:19:45;;;;;;;6.70;1.70;;;16.50;99.90;;;17.42;100.00;98576.09;5002287;28;20491;-77
2022/06/18 04:22:14;;;;;;;1.67;1.50;;;16.50;99.90;;;17.46;100.00;98579.91;5000327;28;20491;-77
2022/06/18 04:24:44;;;;;;;2.30;1.67;;;16.50;99.90;;;17.44;100.00;98574.84;4999816;28;20969;-77
2022/06/18 04:27:15;;;;;;;1.80;1.60;;;16.50;99.90;;;17.43;100.00;98573.22;5000871;28;20554;-77
2022/06/18 04:29:47;;;;;;;3.13;1.97;;;16.60;99.90;;;17.40;100.00;98560.44;5000929;28;20534;-77
2022/06/18 04:32:16;;;;;;;9.43;1.90;;;16.60;99.90;;;17.42;100.00;98568.16;5000874;28;20451;-77
2022/06/18 04:34:46;;;;;;;4.67;2.10;;;16.50;99.90;;;17.45;100.00;98571.19;5000241;28;20447;-77
2022/06/18 04:37:19;;;;;;;12.87;2.03;;;16.50;99.90;;;17.48;100.00;98570.75;5001163;28;20456;-77
2022/06/18 04:39:49;;;;;;;2.37;1.80;;;16.50;99.90;;;17.51;100.00;98572.13;5001846;28;20471;-77
2022/06/18 04:42:18;;;;;;;2.80;1.53;;;16.60;99.90;;;17.52;100.00;98563.19;5004250;28;20994;-77
2022/06/18 04:44:49;;;;;;;2.83;1.50;;;16.60;99.90;;;17.57;100.00;98564.16;5003910;28;20451;-77
2022/06/18 04:47:19;;;;;;;3.97;1.70;;;16.70;99.90;;;17.60;100.00;98562.91;5002129;28;20959;-77
2022/06/18 04:49:51;;;;;;;2.10;1.80;;;16.70;99.90;;;17.63;100.00;98557.22;5005903;28;20448;-78
2022/06/18 04:52:22;;;;;;;2.13;1.70;;;16.70;99.90;;;17.67;100.00;98562.88;5006166;28;21014;-77
2022/06/18 04:54:52;;;;;;;2.70;1.63;;;16.80;99.90;;;17.70;100.00;98559.78;5004614;28;20496;-77
2022/06/18 04:57:22;;;;;;;4.67;1.73;;;16.80;99.90;;;17.75;100.00;98557.28;5003847;28;20446;-78
2022/06/18 04:59:54;;;;;;;4.30;1.83;;;16.80;99.90;;;17.79;100.00;98553.16;5004874;28;21038;-77
2022/06/18 05:02:25;;;;;;;3.00;1.77;;;16.90;99.90;;;17.82;100.00;98550.06;5004220;28;21281;-77
2022/06/18 05:04:56;;;;;;;3.43;2.00;;;16.80;99.90;;;17.88;100.00;98544.69;5004258;28;20479;-77
2022/06/18 05:07:26;;;;;;;2.57;1.77;;;16.80;99.90;;;17.92;100.00;98539.78;5003471;28;20499;-77
2022/06/18 05:09:55;;;;;;;4.83;1.80;;;16.90;99.90;;;17.93;100.00;98544.88;5006000;28;20458;-77
2022/06/18 05:12:25;;;;;;;2.53;1.97;;;17.00;99.90;;;17.94;100.00;98543.84;5003795;28;20446;-78
2022/06/18 05:14:56;;;;;;;1.90;1.60;;;17.00;99.80;;;17.99;100.00;98551.09;5005303;28;20548;-77
2022/06/18 05:17:30;;;;;;;2.80;1.50;;;17.00;99.80;;;17.98;100.00;98550.28;5005566;28;20536;-77
2022/06/18 05:20:04;;;;;;;2.63;1.67;;;17.10;99.90;;;18.05;100.00;98550.19;5005547;28;20447;-77
2022/06/18 05:22:34;;;;;;;2.20;1.50;;;17.10;99.90;;;18.12;100.00;98542.97;5004040;28;20541;-77
2022/06/18 05:25:07;;;;;;;3.80;1.50;;;17.10;99.90;;;18.16;100.00;98546.00;5004972;28;20439;-77
2022/06/18 05:27:38;;;;;;;1.90;1.33;;;17.20;99.90;;;18.22;100.00;98539.84;5003331;28;20461;-77
2022/06/18 05:30:13;;;;;;;5.93;2.00;;;17.20;99.80;;;18.28;100.00;98536.28;5003490;28;20509;-77
2022/06/18 05:32:42;;;;;;;5.47;1.90;;;17.30;99.90;;;18.32;100.00;98535.63;5004869;28;20501;-77
2022/06/18 05:35:15;;;;;;;1.50;1.40;;;17.30;99.90;;;18.36;100.00;98531.47;5003996;28;20467;-77
2022/06/18 05:37:46;;;;;;;2.10;1.60;;;17.30;99.80;;;18.40;100.00;98537.94;5004743;28;20448;-77
2022/06/18 05:40:16;;;;;;;2.17;1.50;;;17.40;99.70;;;18.45;100.00;98532.78;5003837;28;20945;-77
2022/06/18 05:42:47;;;;;;;6.17;1.83;;;17.50;99.80;;;18.48;100.00;98529.69;5004735;28;20492;-78
2022/06/18 05:45:18;;;;;;;3.30;1.50;;;17.40;99.90;;;18.54;100.00;98531.44;5003104;28;20976;-77
2022/06/18 05:47:49;;;;;;;4.57;1.50;;;17.50;99.90;;;18.61;100.00;98531.34;5002250;28;20455;-77
2022/06/18 05:50:20;;;;;;;3.87;1.70;;;17.50;99.90;;;18.67;100.00;98530.47;5000856;28;20440;-77
2022/06/18 05:52:51;;;;;;;2.20;1.60;;;17.60;99.90;;;18.73;100.00;98528.75;5000269;28;20459;-77
2022/06/18 05:55:26;;;;;;;4.50;1.73;;;17.70;99.90;;;18.77;100.00;98524.59;5003532;28;20498;-77
2022/06/18 05:57:58;;;;;;;2.20;1.37;;;17.70;99.90;;;18.81;100.00;98518.59;5004063;28;20455;-77
2022/06/18 06:00:33;;;;;;;1.73;1.40;;;17.70;99.90;;;18.86;100.00;98523.22;5004223;28;20501;-77
2022/06/18 06:03:02;;;;;;;2.63;1.60;;;17.80;99.90;;;18.92;100.00;98509.88;5004011;28;21329;-77
2022/06/18 06:05:32;;;;;;;1.93;1.67;;;17.90;99.90;;;18.97;100.00;98512.66;5002105;28;20456;-77
2022/06/18 06:08:01;;;;;;;4.60;1.43;;;18.00;99.80;;;19.05;100.00;98516.81;5002923;28;20467;-77
2022/06/18 06:13:22;;;;;;;9.03;1.80;;;18.10;99.90;;;19.14;100.00;98515.44;5004412;28;20444;-77
2022/06/18 06:15:56;;;;;;;2.20;1.70;;;18.20;99.90;;;19.20;100.00;98511.84;5004415;28;21377;-77
2022/06/18 06:18:31;;;;;;;1.83;1.60;;;18.30;99.90;;;19.27;100.00;98512.53;5003619;28;20446;-77
2022/06/18 06:21:02;;;;;;;1.83;1.53;;;18.30;99.90;;;19.34;100.00;98512.41;5002333;28;20868;-78
2022/06/18 06:23:32;;;;;;;2.00;1.40;;;18.40;99.90;;;19.39;100.00;98516.00;5003984;28;20529;-77
2022/06/18 06:26:04;;;;;;;4.10;1.67;;;18.40;99.90;;;19.47;100.00;98507.72;5003967;28;20893;-77
2022/06/18 06:28:34;;;;;;;3.10;1.60;;;18.50;99.90;;;19.52;100.00;98499.06;5002675;28;20551;-77
2022/06/18 06:31:05;;;;;;;1.67;1.57;;;18.50;99.90;;;19.59;100.00;98503.22;5003289;28;20467;-77
2022/06/18 06:33:35;;;;;;;3.47;1.73;;;18.60;99.90;;;19.66;100.00;98504.91;4999897;28;20504;-78
2022/06/18 06:36:08;;;;;;;6.03;1.80;;;18.70;99.90;;;19.73;100.00;98500.28;5005315;28;21121;-78
2022/06/18 06:38:39;;;;;;;3.30;1.80;;;18.80;99.90;;;19.79;100.00;98489.53;5003307;28;20450;-78
2022/06/18 06:41:17;;;;;;;2.00;1.67;;;18.90;99.70;;;19.86;100.00;98484.91;5002892;28;20915;-78
2022/06/18 06:43:47;;;;;;;3.07;1.60;;;19.00;99.60;;;19.93;100.00;98490.88;5002646;28;20479;-77
2022/06/18 06:46:19;;;;;;;2.83;1.77;;;19.10;99.40;;;20.02;100.00;98483.38;5003081;28;20503;-77
2022/06/18 06:48:49;;;;;;;4.27;1.53;;;19.20;99.30;;;20.09;100.00;98479.53;5000796;28;20467;-78
2022/06/18 06:51:24;;;;;;;2.83;1.70;;;19.30;99.20;;;20.17;100.00;98483.63;5003350;28;21053;-78
2022/06/18 06:53:54;;;;;;;4.83;1.63;;;19.30;99.30;;;20.24;100.00;98484.31;5003829;28;20435;-78
2022/06/18 06:59:11;;;;;;;4.80;1.50;;;19.40;99.10;;;20.39;100.00;98479.31;5004035;28;20532;-78
2022/06/18 07:01:45;;;;;;;4.60;1.43;;;19.50;99.10;;;20.46;100.00;98476.50;5003242;28;20471;-79
2022/06/18 07:04:16;;;;;;;2.80;1.57;;;19.50;98.90;;;20.53;100.00;98483.28;5001795;28;20486;-78
2022/06/18 07:06:46;;;;;;;2.03;1.63;;;19.60;99.10;;;20.59;100.00;98479.66;5003446;28;20480;-78
2022/06/18 07:09:16;;;;;;;4.60;1.90;;;19.70;99.10;;;20.66;100.00;98476.81;5002920;28;20475;-78
2022/06/18 07:11:46;;;;;;;2.23;1.63;;;19.80;99.20;;;20.74;100.00;98473.78;5001284;28;20489;-78
2022/06/18 07:14:16;;;;;;;2.40;1.70;;;19.90;99.40;;;20.82;100.00;98485.88;5001366;28;20464;-78
2022/06/18 07:16:53;;;;;;;2.27;1.63;;;20.00;99.30;;;20.90;100.00;98477.47;5001837;28;20467;-78
2022/06/18 07:19:25;;;;;;;2.00;1.43;;;20.10;99.40;;;20.97;100.00;98478.09;5000013;28;20463;-78
2022/06/18 07:21:57;;;;;;;2.63;1.77;;;20.10;99.40;;;21.04;100.00;98471.59;5003194;28;20969;-78
2022/06/18 07:24:26;;;;;;;7.13;1.97;;;20.20;99.40;;;21.13;100.00;98474.69;5003333;28;20533;-78
2022/06/18 07:26:56;;;;;;;3.70;1.73;;;20.30;99.30;;;21.20;99.86;98480.63;5000599;28;20455;-79
2022/06/18 07:29:28;;;;;;;2.43;1.80;;;20.40;99.20;;;21.29;99.56;98471.19;5002901;28;20435;-78
2022/06/18 07:32:06;;;;;;;2.20;1.63;;;20.40;99.10;;;21.36;98.96;98469.16;5002108;28;20631;-78
2022/06/18 07:34:37;;;;;;;3.10;1.80;;;20.60;99.00;;;21.44;98.93;98476.72;4999509;28;20451;-78
2022/06/18 07:37:06;;;;;;;2.50;1.67;;;20.60;98.90;;;21.52;98.54;98468.28;5000479;28;20473;-78
2022/06/18 07:39:36;;;;;;;1.80;1.57;;;20.70;99.10;;;21.60;98.63;98464.38;5001219;28;20463;-78
2022/06/18 07:42:08;;;;;;;3.10;1.90;;;20.80;99.10;;;21.69;97.90;98462.13;5001923;28;20953;-78
2022/06/18 07:44:37;;;;;;;5.40;2.33;;;20.90;98.80;;;21.78;97.91;98464.09;5002680;28;20491;-78
2022/06/18 07:47:13;;;;;;;5.33;1.80;;;21.10;98.90;;;21.87;97.67;98461.78;5003499;28;20463;-78
2022/06/18 07:49:42;;;;;;;3.67;1.70;;;21.20;98.80;;;21.94;97.09;98454.44;5000440;28;21024;-78
2022/06/18 07:52:15;;;;;;;2.60;1.63;;;21.30;98.80;;;22.05;96.55;98456.97;4997750;28;20986;-78
2022/06/18 07:54:46;;;;;;;2.20;1.60;;;21.40;98.80;;;22.12;96.59;98451.44;4999394;28;20440;-78
2022/06/18 07:57:23;;;;;;;3.43;1.80;;;21.40;98.70;;;22.21;96.23;98449.94;4999214;28;21065;-78
2022/06/18 07:59:53;;;;;;;2.90;2.07;;;21.50;98.80;;;22.29;96.03;98452.13;5002982;28;20474;-78
2022/06/18 08:02:25;;;;;;;1.97;1.37;;;21.60;98.60;;;22.38;95.39;98439.16;5000034;28;20491;-78
2022/06/18 08:04:56;;;;;;;2.40;1.63;;;21.70;98.50;;;22.46;95.20;98436.84;5001958;28;20501;-78
2022/06/18 08:07:27;;;;;;;4.60;2.10;;;21.80;98.50;;;22.58;95.30;98434.00;5002995;28;20501;-78
2022/06/18 08:09:56;;;;;;;2.30;1.87;;;21.90;98.60;;;22.67;94.82;98437.84;5001185;28;20553;-78
2022/06/18 08:12:26;;;;;;;2.70;1.73;;;22.00;98.50;;;22.77;94.33;98429.13;5002353;28;20476;-78
2022/06/18 08:14:58;;;;;;;4.03;1.80;;;22.10;98.40;;;22.87;94.07;98429.19;5002931;28;20475;-78
2022/06/18 08:17:30;;;;;;;3.37;1.90;;;22.20;98.40;;;22.95;93.83;98434.84;5006318;28;20440;-78
2022/06/18 08:19:59;;;;;;;2.33;1.53;;;22.30;98.30;;;23.05;93.28;98420.75;5005407;28;20470;-78
2022/06/18 08:22:29;;;;;;;3.30;1.70;;;22.40;98.10;;;23.14;92.10;98419.22;5005619;28;20481;-78
2022/06/18 08:25:00;;;;;;;2.97;1.97;;;22.50;97.90;;;23.22;90.74;98413.38;5005939;28;20479;-78
2022/06/18 08:27:31;;;;;;;2.70;1.77;;;22.60;97.60;;;23.29;89.03;98411.28;5004343;28;20458;-78
2022/06/18 08:30:02;;;;;;;4.23;1.43;;;22.70;97.30;;;23.37;88.21;98413.47;5006393;28;20443;-78
2022/06/18 08:32:34;;;;;;;2.73;1.63;;;22.80;97.30;;;23.47;87.87;98410.84;5005354;28;20447;-78
2022/06/18 08:35:06;;;;;;;2.20;1.50;;;22.80;97.00;;;23.56;85.04;98408.50;5005916;28;20953;-78
2022/06/18 08:37:37;;;;;;;2.40;1.60;;;23.00;96.40;;;23.64;83.01;98415.22;5000856;28;20536;-78
2022/06/18 08:43:12;;;;;;;2.47;1.70;;;23.10;95.80;;;23.84;79.14;98412.59;5003589;28;20584;-78
2022/06/18 08:45:51;;;;;;;3.10;1.60;;;23.20;94.20;;;23.93;76.80;98401.13;5005872;28;20536;-78
2022/06/18 08:49:27;;;;;;;1.93;1.50;;;23.40;94.60;;;24.19;73.16;98402.00;5006984;28;20536;-78
2022/06/18 08:52:17;;;;;;;3.23;1.90;;;23.50;93.80;;;24.29;73.74;98393.19;5004267;28;20867;-78
2022/06/18 08:54:57;;;;;;;2.20;1.57;;;23.70;94.20;;;24.36;73.49;98393.72;5004930;28;20499;-78
2022/06/18 08:57:39;;;;;;;1.60;1.40;;;23.80;94.20;;;24.45;72.76;98395.59;5003659;28;20534;-78
2022/06/18 09:00:18;;;;;;;2.87;1.70;;;23.90;93.80;;;24.53;70.92;98381.69;5005353;28;20463;-78
2022/06/18 09:02:57;;;;;;;4.30;1.47;;;24.00;93.60;;;24.64;70.42;98382.50;5005223;28;20468;-78
2022/06/18 09:06:02;;;;;;;3.70;2.10;;;24.10;93.40;;;24.78;66.92;98388.09;5003773;28;21064;-78
2022/06/18 09:08:54;;;;;;;5.10;1.60;;;24.20;92.50;;;24.91;63.36;98376.84;5003114;28;20546;-79
2022/06/18 09:11:40;;;;;;;1.93;1.40;;;24.30;91.70;;;25.02;61.56;98370.41;5004476;28;20552;-78
2022/06/18 09:14:16;;;;;;;1.57;1.20;;;24.50;91.30;;;25.16;62.16;98375.97;5006142;28;21421;-78
2022/06/18 09:16:53;;;;;;;3.10;1.50;;;24.60;91.20;;;25.23;60.93;98371.94;5004086;28;20447;-78
2022/06/18 09:19:27;;;;;;;3.33;1.80;;;24.60;90.60;;;25.31;60.35;98365.19;5006009;28;20957;-78
2022/06/18 09:22:02;;;;;;;2.40;1.90;;;24.70;91.20;;;25.38;60.02;98365.69;5004639;28;20542;-78
2022/06/18 09:24:39;;;;;;;4.27;1.60;;;24.80;90.80;;;25.44;58.98;98369.97;5004989;28;20561;-78
2022/06/18 09:27:18;;;;;;;2.87;1.70;;;24.80;90.60;;;25.59;55.14;98371.78;5005116;28;20439;-79
2022/06/18 09:29:57;;;;;;;10.30;1.57;;;24.90;88.60;;;25.69;56.67;98369.06;5003262;28;20466;-79
2022/06/18 09:32:34;;;;;;;4.57;1.70;;;25.10;90.00;;;25.76;55.69;98356.97;5005999;28;20867;-79
2022/06/18 09:35:15;;;;;;;4.10;1.80;;;25.20;89.60;;;25.85;56.27;98365.22;5004890;28;20440;-78
2022/06/18 09:37:57;;;;;;;3.27;1.80;;;25.20;89.60;;;25.93;54.95;98356.59;5004158;28;20493;-79
2022/06/18 09:40:31;;;;;;;4.30;1.87;;;25.40;88.60;;;26.04;54.80;98355.44;5002700;28;21009;-79
2022/06/18 09:43:12;;;;;;;4.23;1.73;;;25.50;88.50;;;26.11;54.62;98358.59;5005302;28;20451;-78
2022/06/18 09:45:47;;;;;;;3.87;1.80;;;25.50;88.70;;;26.18;54.54;98359.13;5004516;28;20486;-78
2022/06/18 09:48:17;;;;;;;4.03;1.67;;;25.60;88.80;;;26.27;54.28;98360.13;5004358;28;20463;-78
2022/06/18 09:50:51;;;;;;;10.37;2.10;;;25.70;88.70;;;26.37;54.23;98352.00;5004165;28;20455;-78
2022/06/18 09:53:28;;;;;;;3.10;1.70;;;25.80;88.60;;;26.45;54.85;98356.75;5004387;28;20893;-78
2022/06/18 09:56:03;;;;;;;5.33;1.80;;;25.90;89.40;;;26.51;54.83;98346.78;5002884;28;21022;-78
2022/06/18 09:58:43;;;;;;;2.80;1.80;;;25.90;89.40;;;26.55;55.50;98347.81;5005736;28;20850;-79
2022/06/18 10:01:18;;;;;;;8.73;1.97;;;25.90;89.50;;;26.60;54.55;98336.22;5003152;28;20462;-78
2022/06/18 10:06:56;;;;;;;6.80;2.20;;;26.10;88.80;;;26.74;55.57;98339.84;4963412;28;20880;-78
2022/06/18 10:09:48;;;;;;;4.00;2.07;;;26.20;90.00;;;26.82;54.43;98342.75;5003538;28;20454;-79
2022/06/18 10:12:24;;;;;;;8.70;2.10;;;26.20;88.50;;;26.91;54.32;98340.22;5002991;28;21038;-78
2022/06/18 10:14:56;;;;;;;4.23;2.23;;;26.30;89.30;;;26.96;54.81;98337.50;5001297;28;20550;-78
2022/06/18 10:17:42;;;;;;;8.20;1.50;;;26.40;89.30;;;27.05;53.79;98341.13;5004974;28;20463;-78
2022/06/18 10:20:22;;;;;;;3.37;1.60;;;26.40;87.80;;;27.17;52.13;98332.69;5001971;28;20451;-79
2022/06/18 10:23:04;;;;;;;15.40;2.47;;;26.50;86.40;;;27.21;51.91;98323.78;5004533;28;20514;-78
2022/06/18 10:25:42;;;;;;;5.10;1.80;;;26.60;87.10;;;27.24;53.02;98328.56;5002091;28;20531;-78
2022/06/18 10:28:27;;;;;;;2.50;1.67;;;26.70;88.20;;;27.35;51.34;98324.63;5002385;28;21000;-79
2022/06/18 10:31:06;;;;;;;7.13;1.80;;;26.80;86.00;;;27.39;51.92;98317.59;5004067;28;20462;-79
2022/06/18 10:33:54;;;;;;;3.33;1.50;;;26.80;87.10;;;27.42;51.50;98317.03;5004816;28;20499;-79
2022/06/18 10:36:38;;;;;;;5.37;2.23;;;26.80;87.00;;;27.49;49.93;98308.66;5005022;28;20455;-78
2022/06/18 10:39:20;;;;;;;4.70;2.10;;;26.90;85.10;;;27.59;48.73;98313.09;5002860;28;20431;-79
2022/06/18 10:42:09;;;;;;;4.03;2.10;;;27.00;84.20;;;27.69;48.40;98304.88;5001552;28;20469;-78
2022/06/18 10:45:04;;;;;;;9.37;2.10;;;27.10;83.80;;;27.76;47.92;98302.63;5000498;28;20449;-78
2022/06/18 10:47:54;;;;;;;10.30;2.30;;;27.10;81.70;;;27.84;47.50;98299.25;5002685;28;20460;-78
2022/06/18 10:50:25;;;;;;;3.43;1.77;;;27.20;83.40;;;27.87;48.05;98291.41;5003469;28;20442;-78
2022/06/18 10:53:02;;;;;;;4.37;2.00;;;27.30;83.00;;;27.93;48.81;98297.50;5002862;28;20447;-78
2022/06/18 10:55:33;;;;;;;4.80;2.03;;;27.40;84.00;;;27.95;46.92;98288.06;5001018;28;20458;-78
2022/06/18 10:58:13;;;;;;;5.07;2.00;;;27.40;81.40;;;28.10;47.06;98289.72;5000546;28;20535;-78
2022/06/18 11:00:56;;;;;;;4.50;2.43;;;27.50;82.00;;;28.22;46.25;98281.97;5000293;28;20464;-79
2022/06/18 11:03:30;;;;;;;9.33;2.17;;;27.60;81.60;;;28.27;46.82;98286.47;5001220;28;20505;-79